Accueil
METAR-TAF:

METAR-TAF

Aéroports :

Aéroport international de Dubaï

Dubaï, Émirats arabes unis

latitude: 25-15-10N, longitude: 055-21-52E, altitude: 8 m

Observation

Le bulletin a été fait il y a 36 minutes, à 19:00 UTC
Vent 8 kt de sud
Température 36°C
Humidité 53%
Pression 995 hPa
Visibilité 10 km ou plus
pas de nuages en-dessous de 1500 mètres et pas de cumulonimbus.

METAR: OMDB 201900Z 19008KT CAVOK 36/25 Q0995 NOSIG

Heure: 23:36 (19:36 UTC)

Prévision

Le bulletin a été fait il y a 2 heures et 36 minutes, à 17:00 UTC
Prévision valable du 20 à 18 UTC au 22 à 00 UTC
Vent 2 kt de direction variable
Visibilité: 8000 m
Evoluant progressivement
du 21 à 07 UTC au 21 à 09 UTC
Vent 14 kt de nord-ouest
Evoluant progressivement
du 21 à 16 UTC au 21 à 18 UTC
Vent 2 kt de direction variable

TAF: OMDB 201700Z 2018/2200 VRB02KT 8000 NSC BECMG 2107/2109 32014KT BECMG 2116/2118 VRB02KT

Observations et prévisions météorologiques de plus de 4000 aéroports (messages METAR et TAF).

Les stations disponibles sont représentées par des disques jaunes et rouges sur la carte.

Passer la souris dessus pour voir le nom de la station.

Cliquer dessus pour voir les observations et prévisions météorologiques.

Pour changer de carte: cliquez sur les boutons verts avec une croix noire pour zoomer, sur le bouton vert avec un tiret pour effectuer un zoom arrière, ou sur les flèches vertes pour les cartes adjacentes.


METAR-TAF: